createdAt,value
2023-05-05T15:55:52.094Z,24.31
2023-05-05T15:58:55.478Z,24.31
2023-05-05T16:01:57.956Z,23.70
2023-05-05T16:05:00.918Z,23.52
2023-05-05T16:08:09.594Z,23.50
2023-05-05T16:11:12.320Z,23.43
2023-05-05T16:14:14.705Z,23.29
2023-05-05T16:17:17.455Z,23.35
2023-05-05T16:20:19.911Z,23.25
2023-05-05T16:23:22.681Z,23.17
2023-05-05T16:26:25.250Z,23.19
2023-05-05T16:29:28.227Z,23.24
2023-05-05T16:32:30.709Z,23.13
2023-05-05T16:35:33.736Z,23.18
2023-05-05T16:38:36.121Z,23.16
2023-05-05T16:41:39.051Z,23.01
2023-05-05T16:44:41.759Z,23.01
2023-05-05T16:47:44.423Z,22.95
2023-05-05T16:50:46.990Z,22.90
2023-05-05T16:53:49.928Z,22.81
2023-05-05T16:56:52.420Z,22.67
2023-05-05T16:59:56.386Z,22.64
2023-05-05T17:03:01.630Z,22.67
2023-05-05T17:06:04.777Z,22.60
2023-05-05T17:09:07.224Z,22.55
2023-05-05T17:12:09.925Z,22.45
2023-05-05T17:15:15.418Z,22.42
2023-05-05T17:18:21.222Z,22.33
2023-05-05T17:21:23.843Z,22.25
2023-05-05T17:24:26.705Z,22.19
2023-05-05T17:27:29.121Z,22.09
2023-05-05T17:30:32.475Z,21.97
2023-05-05T17:33:34.917Z,21.94
2023-05-05T17:36:37.742Z,21.92
2023-05-05T17:39:40.324Z,21.83
2023-05-05T17:42:43.087Z,21.80
2023-05-05T17:45:46.942Z,21.75
2023-05-05T17:48:49.959Z,21.65
2023-05-05T17:51:52.692Z,21.55
2023-05-05T17:54:55.766Z,21.57
2023-05-05T17:57:59.101Z,21.54
2023-05-05T18:01:02.168Z,21.46
2023-05-05T18:04:07.389Z,21.41
2023-05-05T18:07:11.936Z,21.36
2023-05-05T18:10:14.664Z,21.29
2023-05-05T18:13:17.109Z,21.22
2023-05-05T18:16:20.075Z,21.20
2023-05-05T18:19:24.042Z,21.15
2023-05-05T18:22:27.015Z,21.10
2023-05-05T18:25:30.123Z,20.97
2023-05-05T18:28:33.422Z,20.83
2023-05-05T18:31:35.989Z,20.72
2023-05-05T18:34:38.698Z,20.51
2023-05-05T18:37:42.319Z,20.42
2023-05-05T18:40:45.417Z,20.42
2023-05-05T18:43:47.793Z,20.29
2023-05-05T18:46:51.591Z,20.17
2023-05-05T18:49:54.023Z,20.07
2023-05-05T18:52:56.852Z,20.01
2023-05-05T18:55:59.850Z,19.84
2023-05-05T18:59:02.628Z,19.86
2023-05-05T19:02:05.276Z,19.80
2023-05-05T19:05:08.821Z,19.72
2023-05-05T19:08:11.707Z,19.70
2023-05-05T19:11:15.225Z,19.62
2023-05-05T19:14:18.006Z,19.57
2023-05-05T19:17:21.057Z,19.52
2023-05-05T19:20:23.539Z,19.36
2023-05-05T19:23:27.163Z,19.36
2023-05-05T19:26:29.710Z,19.33
2023-05-05T19:29:32.613Z,19.28
2023-05-05T19:32:35.310Z,19.19
2023-05-05T19:35:38.093Z,19.10
2023-05-05T19:38:44.630Z,19.03
2023-05-05T19:41:47.536Z,19.03
2023-05-05T19:44:49.952Z,18.92
2023-05-05T19:47:52.782Z,18.92
2023-05-05T19:50:55.487Z,18.90
2023-05-05T19:53:59.549Z,18.85
2023-05-05T19:57:02.110Z,18.81
2023-05-05T20:00:06.148Z,18.85
2023-05-05T20:03:09.777Z,18.86
2023-05-05T20:06:12.231Z,18.81
2023-05-05T20:09:15.435Z,18.67
2023-05-05T20:12:19.862Z,18.57
2023-05-05T20:15:22.650Z,18.40
2023-05-05T20:18:25.139Z,18.28
2023-05-05T20:21:27.981Z,18.16
2023-05-05T20:24:30.572Z,18.01
2023-05-05T20:30:35.883Z,17.90
2023-05-05T20:33:38.794Z,17.85
2023-05-05T20:36:41.165Z,17.76
2023-05-05T20:39:44.048Z,17.72
2023-05-05T20:42:47.445Z,17.69
2023-05-05T20:45:50.474Z,17.64
2023-05-05T20:48:52.913Z,17.64
2023-05-05T20:51:55.913Z,17.43
2023-05-05T20:54:58.322Z,17.44
2023-05-05T20:58:01.252Z,17.33
2023-05-05T21:01:03.717Z,17.33
2023-05-05T21:04:06.468Z,17.21
2023-05-05T21:07:08.989Z,17.27
2023-05-05T21:10:11.877Z,17.24
2023-05-05T21:13:14.580Z,17.15
2023-05-05T21:16:17.446Z,17.12
2023-05-05T21:19:19.809Z,17.05
2023-05-05T21:22:22.592Z,16.89
2023-05-05T21:25:25.411Z,16.84
2023-05-05T21:28:28.166Z,16.84
2023-05-05T21:31:30.752Z,16.71
2023-05-05T21:34:33.936Z,16.67
2023-05-05T21:37:39.743Z,16.61
2023-05-05T21:40:42.740Z,16.47
2023-05-05T21:43:45.203Z,16.46
2023-05-05T21:46:48.142Z,16.46
2023-05-05T21:49:51.021Z,16.46
2023-05-05T21:52:53.792Z,16.44
2023-05-05T21:55:56.425Z,16.40
2023-05-05T21:58:59.263Z,16.38
2023-05-05T22:02:01.811Z,16.29
2023-05-05T22:05:04.942Z,16.29
2023-05-05T22:08:08.850Z,16.23
2023-05-05T22:11:11.888Z,16.25
2023-05-05T22:14:15.496Z,16.18
2023-05-05T22:17:18.274Z,16.09
2023-05-05T22:20:21.690Z,16.09
2023-05-05T22:23:24.414Z,16.03
2023-05-05T22:26:26.781Z,15.96
2023-05-05T22:29:29.598Z,15.89
2023-05-05T22:32:32.490Z,15.89
2023-05-05T22:35:35.470Z,15.86
2023-05-05T22:38:38.131Z,15.82
2023-05-05T22:41:41.143Z,15.74
2023-05-05T22:44:43.632Z,15.66
2023-05-05T22:47:46.539Z,15.58
2023-05-05T22:50:49.039Z,15.54
2023-05-05T22:53:51.791Z,15.42
2023-05-05T22:56:54.194Z,15.32
2023-05-05T22:59:56.953Z,15.40
2023-05-05T23:02:59.417Z,15.44
2023-05-05T23:06:03.104Z,15.37
2023-05-05T23:09:05.603Z,15.33
2023-05-05T23:12:08.461Z,15.18
2023-05-05T23:15:11.531Z,15.16
2023-05-05T23:18:14.517Z,15.13
2023-05-05T23:21:17.101Z,15.09
2023-05-05T23:24:20.497Z,15.06
2023-05-05T23:27:23.800Z,15.04
2023-05-05T23:30:26.854Z,14.99
2023-05-05T23:33:29.409Z,14.98
2023-05-05T23:36:32.129Z,14.96
2023-05-05T23:39:34.825Z,14.98
2023-05-05T23:42:37.622Z,14.95
2023-05-05T23:45:40.549Z,14.82
2023-05-05T23:48:43.373Z,14.87
2023-05-05T23:51:46.102Z,14.77
2023-05-05T23:54:48.924Z,14.77
2023-05-05T23:57:53.109Z,14.79
